»·PEaware :: VRD830 KBOI-KMFR

VRD830 :: KBOI-KMFR

FLIGHT INFORMATION

Flight Status: Arrived
Operator:
Virgin America
More flights by this operator :: More flights under this callsign
Pilot: Ben L. (6391)
Aircraft: AIRBUS A320
(A320)
More flights by this aircraft type
Origin: KBOI Boise Air Terminal/Gowen
United States
Destination: KMFR Rogue Valley Intl-Medford
United States
More flights between these airports :: More routes between these airports
Route: BOI3 SAILL BUEEL ACLOB
File this flight plan on PilotEdge
Remarks:
Altitude:
(Current/Filed)
36,000ft
Speed:
(Current/Filed)
450kts
Departed: 24-Feb-18 01:17 PM
Arrived: 24-Feb-18 02:18 PM
Distance/Time
Traveled:
301nm/1:01
Distance/Time
To Go:
Arrived

Flight Plot

Page will automatically refresh every two minutes.

Flight plan parsing failed; only flown route is shown


Map Options




Map Legend


Flown Route
Filed Route
Departure Airport
Arrival Airport
Navaid (VOR, NDB)
Fix

Horizontal Profiles

Position Reports

Time Latitude Longitude Heading Altitude Ground
Speed
24-Feb-18 12:52 43.567794 -116.222486 99 2880ft 0kts
24-Feb-18 12:53 43.567794 -116.222486 99 2880ft 0kts
24-Feb-18 12:54 43.567794 -116.222486 99 2880ft 0kts
24-Feb-18 12:55 43.567794 -116.222486 99 2880ft 0kts
24-Feb-18 12:56 43.567794 -116.222486 99 2880ft 0kts
24-Feb-18 12:57 43.567794 -116.222486 99 2880ft 0kts
24-Feb-18 12:58 43.567794 -116.222486 99 2880ft 0kts
24-Feb-18 12:59 43.567794 -116.222486 99 2880ft 0kts
24-Feb-18 13:00 43.567794 -116.222486 99 2880ft 0kts
24-Feb-18 13:01 43.567794 -116.222486 99 2880ft 0kts
24-Feb-18 13:02 43.567794 -116.222486 99 2880ft 0kts
24-Feb-18 13:03 43.567794 -116.222486 99 2880ft 0kts
24-Feb-18 13:04 43.567794 -116.222486 99 2880ft 0kts
24-Feb-18 13:05 43.567794 -116.222486 99 2880ft 0kts
24-Feb-18 13:06 43.567794 -116.222486 99 2880ft 0kts
24-Feb-18 13:07 43.567794 -116.222487 99 2880ft 0kts
24-Feb-18 13:08 43.567794 -116.222487 99 2880ft 0kts
24-Feb-18 13:09 43.567848 -116.222717 120 2880ft 2kts
24-Feb-18 13:10 43.568061 -116.223078 130 2880ft 0kts
24-Feb-18 13:11 43.568061 -116.223078 130 2880ft 0kts
24-Feb-18 13:12 43.568061 -116.223078 130 2880ft 0kts
24-Feb-18 13:13 43.568061 -116.223078 130 2880ft 0kts
24-Feb-18 13:14 43.568061 -116.223078 130 2880ft 0kts
24-Feb-18 13:15 43.568061 -116.223078 130 2880ft 0kts
24-Feb-18 13:16 43.568061 -116.223078 130 2880ft 0kts
24-Feb-18 13:17 43.568061 -116.223078 130 2880ft 0kts
24-Feb-18 13:18 43.568061 -116.223078 130 2880ft 0kts
24-Feb-18 13:19 43.568061 -116.223078 130 2880ft 0kts
24-Feb-18 13:20 43.567526 -116.222867 195 2880ft 2kts
24-Feb-18 13:21 43.567266 -116.224781 295 2880ft 15kts
24-Feb-18 13:22 43.569235 -116.230497 294 2880ft 21kts
24-Feb-18 13:23 43.570982 -116.235916 263 2880ft 2kts
24-Feb-18 13:24 43.569608 -116.235158 116 2880ft 41kts
24-Feb-18 13:25 43.549538 -116.182140 119 4661ft 177kts
24-Feb-18 13:26 43.527434 -116.128777 144 6763ft 214kts
24-Feb-18 13:27 43.468750 -116.137107 230 9447ft 245kts
24-Feb-18 13:28 43.432392 -116.224790 245 11753ft 293kts
24-Feb-18 13:29 43.434227 -116.335345 295 13860ft 329kts
24-Feb-18 13:30 43.476573 -116.447231 295 15977ft 336kts
24-Feb-18 13:31 43.519498 -116.560582 295 16044ft 337kts
24-Feb-18 13:32 43.560841 -116.669834 295 16968ft 345kts
24-Feb-18 13:33 43.605118 -116.787187 295 19148ft 354kts
24-Feb-18 13:34 43.650724 -116.908586 295 21083ft 364kts
24-Feb-18 13:35 43.697137 -117.032685 297 22948ft 370kts
24-Feb-18 13:36 43.741845 -117.161791 294 24576ft 377kts
24-Feb-18 13:37 43.783780 -117.294978 294 25950ft 386kts
24-Feb-18 13:38 43.826566 -117.431571 295 27221ft 394kts
24-Feb-18 13:39 43.860981 -117.575867 277 28362ft 407kts
24-Feb-18 13:40 43.837210 -117.725021 250 29335ft 431kts
24-Feb-18 13:41 43.787810 -117.876916 251 30379ft 436kts
24-Feb-18 13:42 43.738817 -118.027694 251 31645ft 433kts
24-Feb-18 13:43 43.689678 -118.178244 251 32776ft 432kts
24-Feb-18 13:44 43.640364 -118.328488 251 33821ft 431kts
24-Feb-18 13:45 43.591154 -118.477571 251 34796ft 429kts
24-Feb-18 13:46 43.541734 -118.626459 251 35695ft 428kts
24-Feb-18 13:47 43.494601 -118.767701 251 36057ft 427kts
24-Feb-18 13:48 43.445113 -118.915209 252 36059ft 428kts
24-Feb-18 13:49 43.395355 -119.062717 253 36056ft 428kts
24-Feb-18 13:50 43.345230 -119.210482 253 36054ft 429kts
24-Feb-18 13:51 43.294932 -119.357953 253 36058ft 429kts
24-Feb-18 13:52 43.244464 -119.505095 253 36059ft 429kts
24-Feb-18 13:53 43.194427 -119.650066 253 36057ft 429kts
24-Feb-18 13:54 43.145895 -119.790492 253 36068ft 430kts
24-Feb-18 13:55 43.094866 -119.936947 253 36149ft 430kts
24-Feb-18 13:56 43.043540 -120.083463 253 36171ft 430kts
24-Feb-18 13:57 42.991945 -120.229977 253 36176ft 429kts
24-Feb-18 13:58 42.940765 -120.374557 254 36178ft 426kts
24-Feb-18 13:59 42.891884 -120.511948 255 36166ft 423kts
24-Feb-18 14:00 42.842202 -120.650902 254 36122ft 419kts
24-Feb-18 14:01 42.794389 -120.784077 254 35273ft 423kts
24-Feb-18 14:02 42.744513 -120.922223 254 34341ft 424kts
24-Feb-18 14:03 42.692892 -121.064387 255 32715ft 421kts
24-Feb-18 14:04 42.641574 -121.205156 255 29982ft 426kts
24-Feb-18 14:05 42.590776 -121.343341 255 27572ft 398kts
24-Feb-18 14:06 42.543026 -121.473177 254 25468ft 386kts
24-Feb-18 14:07 42.495912 -121.600916 253 24193ft 394kts
24-Feb-18 14:08 42.449066 -121.727012 253 24193ft 395kts
24-Feb-18 14:09 42.400983 -121.855802 253 23818ft 397kts
24-Feb-18 14:10 42.351602 -121.987255 251 19518ft 394kts
24-Feb-18 14:11 42.305401 -122.109530 251 16337ft 350kts
24-Feb-18 14:12 42.261801 -122.225305 250 15994ft 350kts
24-Feb-18 14:13 42.218270 -122.331790 248 15063ft 294kts
24-Feb-18 14:14 42.180410 -122.417381 249 13563ft 246kts
24-Feb-18 14:15 42.150472 -122.492948 261 11964ft 216kts
24-Feb-18 14:16 42.148729 -122.568791 287 9964ft 199kts
24-Feb-18 14:17 42.169298 -122.636516 307 7545ft 198kts
24-Feb-18 14:18 42.202779 -122.687633 310 5888ft 179kts
24-Feb-18 14:19 42.230713 -122.733769 301 4290ft 151kts
24-Feb-18 14:20 42.251415 -122.780052 304 3810ft 130kts
24-Feb-18 14:21 42.275566 -122.814493 321 2679ft 126kts
24-Feb-18 14:22 42.306112 -122.837343 335 2293ft 129kts
24-Feb-18 14:23 42.339006 -122.854557 336 1827ft 130kts
24-Feb-18 14:24 42.371830 -122.871481 329 1343ft 103kts
24-Feb-18 14:25 42.380472 -122.877068 259 1342ft 6kts
24-Feb-18 14:26 42.380179 -122.877455 194 1342ft 8kts
24-Feb-18 14:27 42.376992 -122.875921 159 1342ft 18kts
24-Feb-18 14:28 42.372598 -122.873592 157 1342ft 15kts
24-Feb-18 14:29 42.369194 -122.872999 210 1342ft 3kts
24-Feb-18 14:30 42.368980 -122.873458 246 1342ft 0kts
24-Feb-18 14:31 42.368980 -122.873458 246 1342ft 0kts
24-Feb-18 14:32 42.368980 -122.873458 246 1342ft 0kts
24-Feb-18 14:33 42.368980 -122.873458 246 1342ft 0kts
24-Feb-18 14:34 42.368980 -122.873458 246 1342ft 0kts
24-Feb-18 14:35 42.368980 -122.873458 246 1342ft 0kts
24-Feb-18 14:36 42.368980 -122.873458 246 1342ft 0kts
24-Feb-18 14:37 42.368980 -122.873458 246 1342ft 0kts
24-Feb-18 14:38 42.368980 -122.873458 246 1342ft 0kts
24-Feb-18 14:39 42.368980 -122.873458 246 1342ft 0kts

Navigation Log

Ident Type
Flight plan parsing failed, navigation log unavailable